sensor_id;sensor_type;location;lat;lon;timestamp;pressure;altitude;pressure_sealevel;temperature;humidity
14253;BME280;7210;51.502;10.722;2023-06-26T00:01:41;99599.72;;;17.06;100.00
14253;BME280;7210;51.502;10.722;2023-06-26T00:04:09;99599.47;;;17.08;100.00
14253;BME280;7210;51.502;10.722;2023-06-26T00:06:41;99597.59;;;17.03;100.00
14253;BME280;7210;51.502;10.722;2023-06-26T00:09:08;99591.16;;;16.99;100.00
14253;BME280;7210;51.502;10.722;2023-06-26T00:11:38;99593.31;;;16.97;100.00
14253;BME280;7210;51.502;10.722;2023-06-26T00:14:05;99590.38;;;16.94;100.00
14253;BME280;7210;51.502;10.722;2023-06-26T00:16:33;99580.22;;;16.91;100.00
14253;BME280;7210;51.502;10.722;2023-06-26T00:19:00;99580.22;;;16.86;100.00
14253;BME280;7210;51.502;10.722;2023-06-26T00:21:27;99579.44;;;16.85;100.00
14253;BME280;7210;51.502;10.722;2023-06-26T00:23:56;99579.16;;;16.82;100.00
14253;BME280;7210;51.502;10.722;2023-06-26T00:26:23;99575.94;;;16.80;100.00
14253;BME280;7210;51.502;10.722;2023-06-26T00:28:51;99577.28;;;16.77;100.00
14253;BME280;7210;51.502;10.722;2023-06-26T00:31:19;99576.75;;;16.70;100.00
14253;BME280;7210;51.502;10.722;2023-06-26T00:33:47;99575.13;;;16.69;100.00
14253;BME280;7210;51.502;10.722;2023-06-26T00:36:14;99569.28;;;16.67;100.00
14253;BME280;7210;51.502;10.722;2023-06-26T00:38:41;99566.31;;;16.64;100.00
14253;BME280;7210;51.502;10.722;2023-06-26T00:41:09;99566.06;;;16.60;100.00
14253;BME280;7210;51.502;10.722;2023-06-26T00:43:38;99560.72;;;16.60;100.00
14253;BME280;7210;51.502;10.722;2023-06-26T00:46:12;99559.94;;;16.60;100.00
14253;BME280;7210;51.502;10.722;2023-06-26T00:48:43;99556.47;;;16.64;100.00
14253;BME280;7210;51.502;10.722;2023-06-26T00:51:11;99553.25;;;16.62;100.00
14253;BME280;7210;51.502;10.722;2023-06-26T00:53:39;99557.53;;;16.58;100.00
14253;BME280;7210;51.502;10.722;2023-06-26T00:56:08;99553.25;;;16.52;100.00
14253;BME280;7210;51.502;10.722;2023-06-26T00:58:36;99552.19;;;16.48;100.00
14253;BME280;7210;51.502;10.722;2023-06-26T01:01:03;99547.09;;;16.42;100.00
14253;BME280;7210;51.502;10.722;2023-06-26T01:03:34;99546.31;;;16.41;100.00
14253;BME280;7210;51.502;10.722;2023-06-26T01:06:06;99535.06;;;16.34;100.00
14253;BME280;7210;51.502;10.722;2023-06-26T01:08:38;99541.19;;;16.35;100.00
14253;BME280;7210;51.502;10.722;2023-06-26T01:11:10;99539.84;;;16.27;100.00
14253;BME280;7210;51.502;10.722;2023-06-26T01:13:40;99539.03;;;16.27;100.00
14253;BME280;7210;51.502;10.722;2023-06-26T01:16:09;99540.38;;;16.24;100.00
14253;BME280;7210;51.502;10.722;2023-06-26T01:18:38;99544.13;;;16.23;100.00
14253;BME280;7210;51.502;10.722;2023-06-26T01:21:10;99531.00;;;16.17;100.00
14253;BME280;7210;51.502;10.722;2023-06-26T01:23:49;99535.56;;;16.21;100.00
14253;BME280;7210;51.502;10.722;2023-06-26T01:26:26;99540.88;;;16.21;100.00
14253;BME280;7210;51.502;10.722;2023-06-26T01:28:56;99534.50;;;16.17;100.00
14253;BME280;7210;51.502;10.722;2023-06-26T01:31:26;99541.16;;;16.15;100.00
14253;BME280;7210;51.502;10.722;2023-06-26T01:33:54;99535.28;;;16.18;100.00
14253;BME280;7210;51.502;10.722;2023-06-26T01:36:22;99526.47;;;16.12;100.00
14253;BME280;7210;51.502;10.722;2023-06-26T01:38:50;99519.53;;;16.01;100.00
14253;BME280;7210;51.502;10.722;2023-06-26T01:41:18;99508.56;;;15.98;100.00
14253;BME280;7210;51.502;10.722;2023-06-26T01:44:03;99515.28;;;16.10;100.00
14253;BME280;7210;51.502;10.722;2023-06-26T01:46:40;99514.47;;;16.15;100.00
14253;BME280;7210;51.502;10.722;2023-06-26T01:49:17;99505.13;;;16.12;100.00
14253;BME280;7210;51.502;10.722;2023-06-26T01:52:00;99507.28;;;16.10;100.00
14253;BME280;7210;51.502;10.722;2023-06-26T01:54:34;99497.66;;;16.04;100.00
14253;BME280;7210;51.502;10.722;2023-06-26T01:57:09;99495.25;;;15.98;100.00
14253;BME280;7210;51.502;10.722;2023-06-26T01:59:42;99496.56;;;15.95;100.00
14253;BME280;7210;51.502;10.722;2023-06-26T02:02:10;99504.88;;;16.04;100.00
14253;BME280;7210;51.502;10.722;2023-06-26T02:04:39;99497.09;;;16.07;100.00
14253;BME280;7210;51.502;10.722;2023-06-26T02:07:06;99496.06;;;16.03;100.00
14253;BME280;7210;51.502;10.722;2023-06-26T02:09:35;99490.16;;;15.96;100.00
14253;BME280;7210;51.502;10.722;2023-06-26T02:14:54;99494.66;;;15.86;100.00
14253;BME280;7210;51.502;10.722;2023-06-26T02:17:26;99478.13;;;15.79;100.00
14253;BME280;7210;51.502;10.722;2023-06-26T02:19:54;99483.16;;;15.75;100.00
14253;BME280;7210;51.502;10.722;2023-06-26T02:22:22;99483.72;;;15.72;100.00
14253;BME280;7210;51.502;10.722;2023-06-26T02:24:49;99489.28;;;15.66;100.00
14253;BME280;7210;51.502;10.722;2023-06-26T02:27:20;99480.47;;;15.60;100.00
14253;BME280;7210;51.502;10.722;2023-06-26T02:29:47;99482.59;;;15.58;100.00
14253;BME280;7210;51.502;10.722;2023-06-26T02:32:16;99476.97;;;15.55;100.00
14253;BME280;7210;51.502;10.722;2023-06-26T02:34:43;99482.03;;;15.51;100.00
14253;BME280;7210;51.502;10.722;2023-06-26T02:37:10;99466.03;;;15.51;100.00
14253;BME280;7210;51.502;10.722;2023-06-26T02:39:38;99479.91;;;15.48;100.00
14253;BME280;7210;51.502;10.722;2023-06-26T02:42:07;99477.75;;;15.50;100.00
14253;BME280;7210;51.502;10.722;2023-06-26T02:44:35;99471.44;;;15.61;100.00
14253;BME280;7210;51.502;10.722;2023-06-26T02:47:03;99477.00;;;15.65;100.00
14253;BME280;7210;51.502;10.722;2023-06-26T02:49:33;99469.28;;;15.63;100.00
14253;BME280;7210;51.502;10.722;2023-06-26T02:52:04;99469.53;;;15.57;100.00
14253;BME280;7210;51.502;10.722;2023-06-26T02:54:32;99461.00;;;15.50;100.00
14253;BME280;7210;51.502;10.722;2023-06-26T02:57:03;99463.38;;;15.46;100.00
14253;BME280;7210;51.502;10.722;2023-06-26T02:59:33;99452.16;;;15.39;100.00
14253;BME280;7210;51.502;10.722;2023-06-26T03:02:00;99460.66;;;15.36;100.00
14253;BME280;7210;51.502;10.722;2023-06-26T03:04:33;99466.44;;;15.28;100.00
14253;BME280;7210;51.502;10.722;2023-06-26T03:07:04;99458.47;;;15.23;100.00
14253;BME280;7210;51.502;10.722;2023-06-26T03:09:32;99464.31;;;15.25;100.00
14253;BME280;7210;51.502;10.722;2023-06-26T03:11:59;99461.66;;;15.25;100.00
14253;BME280;7210;51.502;10.722;2023-06-26T03:14:32;99459.00;;;15.25;100.00
14253;BME280;7210;51.502;10.722;2023-06-26T03:17:08;99448.88;;;15.27;100.00
14253;BME280;7210;51.502;10.722;2023-06-26T03:19:38;99457.38;;;15.29;100.00
14253;BME280;7210;51.502;10.722;2023-06-26T03:22:28;99452.88;;;15.30;100.00
14253;BME280;7210;51.502;10.722;2023-06-26T03:24:55;99460.66;;;15.32;100.00
14253;BME280;7210;51.502;10.722;2023-06-26T03:27:22;99456.31;;;15.25;100.00
14253;BME280;7210;51.502;10.722;2023-06-26T03:29:49;99459.53;;;15.27;100.00
14253;BME280;7210;51.502;10.722;2023-06-26T03:32:18;99455.31;;;15.32;100.00
14253;BME280;7210;51.502;10.722;2023-06-26T03:34:57;99458.78;;;15.32;100.00
14253;BME280;7210;51.502;10.722;2023-06-26T03:37:25;99446.50;;;15.31;100.00
14253;BME280;7210;51.502;10.722;2023-06-26T03:39:52;99460.06;;;15.29;100.00
14253;BME280;7210;51.502;10.722;2023-06-26T03:42:20;99452.06;;;15.29;100.00
14253;BME280;7210;51.502;10.722;2023-06-26T03:44:48;99453.41;;;15.27;100.00
14253;BME280;7210;51.502;10.722;2023-06-26T03:47:17;99450.75;;;15.27;100.00
14253;BME280;7210;51.502;10.722;2023-06-26T03:49:45;99453.69;;;15.30;100.00
14253;BME280;7210;51.502;10.722;2023-06-26T03:52:13;99442.47;;;15.28;100.00
14253;BME280;7210;51.502;10.722;2023-06-26T03:54:40;99443.03;;;15.30;100.00
14253;BME280;7210;51.502;10.722;2023-06-26T03:57:09;99449.47;;;15.34;100.00
14253;BME280;7210;51.502;10.722;2023-06-26T03:59:37;99453.75;;;15.40;100.00
14253;BME280;7210;51.502;10.722;2023-06-26T04:02:04;99447.91;;;15.43;100.00
14253;BME280;7210;51.502;10.722;2023-06-26T04:04:32;99445.25;;;15.48;100.00
14253;BME280;7210;51.502;10.722;2023-06-26T04:07:08;99446.59;;;15.51;100.00
14253;BME280;7210;51.502;10.722;2023-06-26T04:09:38;99452.22;;;15.59;100.00
14253;BME280;7210;51.502;10.722;2023-06-26T04:12:07;99451.16;;;15.65;100.00
14253;BME280;7210;51.502;10.722;2023-06-26T04:14:34;99452.25;;;15.69;100.00
14253;BME280;7210;51.502;10.722;2023-06-26T04:17:02;99447.97;;;15.73;100.00
14253;BME280;7210;51.502;10.722;2023-06-26T04:19:30;99442.66;;;15.73;100.00
14253;BME280;7210;51.502;10.722;2023-06-26T04:22:02;99449.63;;;15.84;100.00
14253;BME280;7210;51.502;10.722;2023-06-26T04:24:30;99453.88;;;15.90;100.00
14253;BME280;7210;51.502;10.722;2023-06-26T04:26:58;99449.09;;;15.97;100.00
14253;BME280;7210;51.502;10.722;2023-06-26T04:29:26;99446.44;;;16.02;100.00
14253;BME280;7210;51.502;10.722;2023-06-26T04:31:54;99441.09;;;16.07;100.00
14253;BME280;7210;51.502;10.722;2023-06-26T04:34:24;99445.94;;;16.15;100.00
14253;BME280;7210;51.502;10.722;2023-06-26T04:37:02;99447.50;;;16.21;100.00
14253;BME280;7210;51.502;10.722;2023-06-26T04:39:30;99436.84;;;16.26;100.00
14253;BME280;7210;51.502;10.722;2023-06-26T04:41:59;99444.31;;;16.34;100.00
14253;BME280;7210;51.502;10.722;2023-06-26T04:44:32;99435.00;;;16.42;100.00
14253;BME280;7210;51.502;10.722;2023-06-26T04:46:59;99433.13;;;16.47;100.00
14253;BME280;7210;51.502;10.722;2023-06-26T04:49:26;99439.53;;;16.56;100.00
14253;BME280;7210;51.502;10.722;2023-06-26T04:51:56;99433.66;;;16.64;100.00
14253;BME280;7210;51.502;10.722;2023-06-26T04:54:26;99431.22;;;16.73;100.00
14253;BME280;7210;51.502;10.722;2023-06-26T04:56:54;99427.47;;;16.84;100.00
14253;BME280;7210;51.502;10.722;2023-06-26T04:59:23;99424.53;;;16.85;100.00
14253;BME280;7210;51.502;10.722;2023-06-26T05:01:51;99441.56;;;16.99;100.00
14253;BME280;7210;51.502;10.722;2023-06-26T05:04:18;99442.59;;;17.08;100.00
14253;BME280;7210;51.502;10.722;2023-06-26T05:06:50;99443.38;;;17.24;100.00
14253;BME280;7210;51.502;10.722;2023-06-26T05:09:20;99444.91;;;17.35;100.00
14253;BME280;7210;51.502;10.722;2023-06-26T05:11:47;99438.75;;;17.44;100.00
14253;BME280;7210;51.502;10.722;2023-06-26T05:14:14;99434.41;;;17.58;100.00
14253;BME280;7210;51.502;10.722;2023-06-26T05:16:42;99429.00;;;17.68;100.00
14253;BME280;7210;51.502;10.722;2023-06-26T05:19:20;99431.59;;;17.83;100.00
14253;BME280;7210;51.502;10.722;2023-06-26T05:21:48;99433.13;;;17.94;100.00
14253;BME280;7210;51.502;10.722;2023-06-26T05:24:16;99417.53;;;18.01;100.00
14253;BME280;7210;51.502;10.722;2023-06-26T05:26:44;99427.63;;;18.14;100.00
14253;BME280;7210;51.502;10.722;2023-06-26T05:29:21;99417.63;;;18.25;100.00
14253;BME280;7210;51.502;10.722;2023-06-26T05:31:50;99419.97;;;18.36;100.00
14253;BME280;7210;51.502;10.722;2023-06-26T05:34:27;99421.44;;;18.52;100.00
14253;BME280;7210;51.502;10.722;2023-06-26T05:36:58;99421.81;;;18.69;100.00
14253;BME280;7210;51.502;10.722;2023-06-26T05:39:26;99429.41;;;18.86;100.00
14253;BME280;7210;51.502;10.722;2023-06-26T05:41:54;99417.72;;;19.00;100.00
14253;BME280;7210;51.502;10.722;2023-06-26T05:44:22;99416.59;;;19.06;100.00
14253;BME280;7210;51.502;10.722;2023-06-26T05:46:51;99418.63;;;19.19;100.00
14253;BME280;7210;51.502;10.722;2023-06-26T05:49:18;99414.22;;;19.28;100.00
14253;BME280;7210;51.502;10.722;2023-06-26T05:51:50;99414.06;;;19.38;100.00
14253;BME280;7210;51.502;10.722;2023-06-26T05:54:18;99417.69;;;19.47;100.00
14253;BME280;7210;51.502;10.722;2023-06-26T05:56:47;99415.47;;;19.54;100.00
14253;BME280;7210;51.502;10.722;2023-06-26T05:59:26;99411.56;;;19.65;100.00
14253;BME280;7210;51.502;10.722;2023-06-26T06:01:55;99417.88;;;19.74;100.00
14253;BME280;7210;51.502;10.722;2023-06-26T06:04:23;99420.41;;;19.84;100.00
14253;BME280;7210;51.502;10.722;2023-06-26T06:06:51;99432.50;;;20.00;100.00
14253;BME280;7210;51.502;10.722;2023-06-26T06:09:19;99431.38;;;20.06;100.00
14253;BME280;7210;51.502;10.722;2023-06-26T06:11:49;99443.03;;;20.15;100.00
14253;BME280;7210;51.502;10.722;2023-06-26T06:14:17;99450.44;;;20.23;100.00
14253;BME280;7210;51.502;10.722;2023-06-26T06:16:44;99455.63;;;20.33;100.00
14253;BME280;7210;51.502;10.722;2023-06-26T06:19:12;99458.69;;;20.45;99.21
14253;BME280;7210;51.502;10.722;2023-06-26T06:21:40;99478.22;;;20.64;98.57
14253;BME280;7210;51.502;10.722;2023-06-26T06:24:08;99484.66;;;20.81;97.72
14253;BME280;7210;51.502;10.722;2023-06-26T06:26:36;99487.97;;;20.92;96.68
14253;BME280;7210;51.502;10.722;2023-06-26T06:29:03;99494.56;;;20.99;95.79
14253;BME280;7210;51.502;10.722;2023-06-26T06:31:30;99493.50;;;21.14;94.22
14253;BME280;7210;51.502;10.722;2023-06-26T06:33:57;99508.84;;;21.27;93.28
14253;BME280;7210;51.502;10.722;2023-06-26T06:36:27;99524.78;;;21.37;92.22
14253;BME280;7210;51.502;10.722;2023-06-26T06:38:54;99523.63;;;21.43;91.52
14253;BME280;7210;51.502;10.722;2023-06-26T06:41:22;99535.06;;;21.48;90.30
14253;BME280;7210;51.502;10.722;2023-06-26T06:43:49;99546.72;;;21.57;89.42
14253;BME280;7210;51.502;10.722;2023-06-26T06:46:20;99564.06;;;21.65;88.90
14253;BME280;7210;51.502;10.722;2023-06-26T06:48:47;99579.75;;;21.76;88.35
14253;BME280;7210;51.502;10.722;2023-06-26T06:51:27;99590.00;;;21.88;87.52
14253;BME280;7210;51.502;10.722;2023-06-26T06:53:55;99612.25;;;22.07;87.12
14253;BME280;7210;51.502;10.722;2023-06-26T06:56:22;99616.22;;;22.23;86.23
14253;BME280;7210;51.502;10.722;2023-06-26T06:58:50;99628.56;;;22.37;85.49
14253;BME280;7210;51.502;10.722;2023-06-26T07:01:17;99632.97;;;22.47;84.65
14253;BME280;7210;51.502;10.722;2023-06-26T07:03:44;99645.13;;;22.58;84.10
14253;BME280;7210;51.502;10.722;2023-06-26T07:06:13;99659.50;;;22.67;83.44
14253;BME280;7210;51.502;10.722;2023-06-26T07:08:41;99662.91;;;22.81;82.40
14253;BME280;7210;51.502;10.722;2023-06-26T07:11:14;99670.28;;;22.89;81.36
14253;BME280;7210;51.502;10.722;2023-06-26T07:13:41;99687.38;;;22.98;81.36
14253;BME280;7210;51.502;10.722;2023-06-26T07:16:08;99693.00;;;23.10;80.79
14253;BME280;7210;51.502;10.722;2023-06-26T07:18:44;99681.25;;;23.28;78.95
14253;BME280;7210;51.502;10.722;2023-06-26T07:21:11;99726.91;;;23.38;79.16
14253;BME280;7210;51.502;10.722;2023-06-26T07:23:38;99720.44;;;23.47;78.30
14253;BME280;7210;51.502;10.722;2023-06-26T07:26:07;99735.50;;;23.62;77.67
14253;BME280;7210;51.502;10.722;2023-06-26T07:28:38;99739.41;;;23.77;76.62
14253;BME280;7210;51.502;10.722;2023-06-26T07:31:05;99769.47;;;23.84;76.25
14253;BME280;7210;51.502;10.722;2023-06-26T07:33:32;99775.13;;;23.96;76.00
14253;BME280;7210;51.502;10.722;2023-06-26T07:35:59;99782.81;;;24.03;75.21
14253;BME280;7210;51.502;10.722;2023-06-26T07:38:26;99801.75;;;24.11;74.84
14253;BME280;7210;51.502;10.722;2023-06-26T07:40:54;99800.63;;;24.12;74.50
14253;BME280;7210;51.502;10.722;2023-06-26T07:43:22;99777.00;;;24.18;73.01
14253;BME280;7210;51.502;10.722;2023-06-26T07:45:49;99805.81;;;24.22;72.88
14253;BME280;7210;51.502;10.722;2023-06-26T07:48:19;99833.50;;;24.28;73.01
14253;BME280;7210;51.502;10.722;2023-06-26T07:50:46;99797.59;;;24.36;71.81
14253;BME280;7210;51.502;10.722;2023-06-26T07:53:13;99834.38;;;24.45;71.55
14253;BME280;7210;51.502;10.722;2023-06-26T07:55:40;99859.31;;;24.64;72.07
14253;BME280;7210;51.502;10.722;2023-06-26T07:58:08;99819.56;;;24.73;70.82
14253;BME280;7210;51.502;10.722;2023-06-26T08:00:37;99833.63;;;24.92;69.88
14253;BME280;7210;51.502;10.722;2023-06-26T08:03:04;99849.69;;;24.97;70.27
14253;BME280;7210;51.502;10.722;2023-06-26T08:05:31;99849.72;;;25.06;69.84
14253;BME280;7210;51.502;10.722;2023-06-26T08:07:58;99849.75;;;25.14;69.66
14253;BME280;7210;51.502;10.722;2023-06-26T08:10:27;99848.81;;;25.19;68.66
14253;BME280;7210;51.502;10.722;2023-06-26T08:12:56;99856.34;;;25.30;68.10
14253;BME280;7210;51.502;10.722;2023-06-26T08:15:39;99853.47;;;25.35;67.97
14253;BME280;7210;51.502;10.722;2023-06-26T08:18:06;99855.72;;;25.50;67.16
14253;BME280;7210;51.502;10.722;2023-06-26T08:20:33;99880.88;;;25.59;67.08
14253;BME280;7210;51.502;10.722;2023-06-26T08:23:08;99867.38;;;25.76;66.72
14253;BME280;7210;51.502;10.722;2023-06-26T08:25:38;99868.16;;;25.85;66.24
14253;BME280;7210;51.502;10.722;2023-06-26T08:28:05;99884.91;;;26.04;65.78
14253;BME280;7210;51.502;10.722;2023-06-26T08:30:32;99866.53;;;26.10;64.89
14253;BME280;7210;51.502;10.722;2023-06-26T08:33:01;99875.81;;;26.17;64.21
14253;BME280;7210;51.502;10.722;2023-06-26T08:35:28;99884.22;;;26.33;63.29
14253;BME280;7210;51.502;10.722;2023-06-26T08:37:57;99904.63;;;26.47;63.20
14253;BME280;7210;51.502;10.722;2023-06-26T08:40:25;99913.09;;;26.54;63.26
14253;BME280;7210;51.502;10.722;2023-06-26T08:42:56;99922.31;;;26.62;63.34
14253;BME280;7210;51.502;10.722;2023-06-26T08:45:23;99916.34;;;26.77;63.42
14253;BME280;7210;51.502;10.722;2023-06-26T08:47:55;99939.44;;;26.91;63.85
14253;BME280;7210;51.502;10.722;2023-06-26T08:50:30;99907.63;;;27.00;62.96
14253;BME280;7210;51.502;10.722;2023-06-26T08:53:07;99917.00;;;27.11;62.90
14253;BME280;7210;51.502;10.722;2023-06-26T08:55:44;99941.25;;;27.25;63.24
14253;BME280;7210;51.502;10.722;2023-06-26T08:58:11;99930.06;;;27.26;63.15
14253;BME280;7210;51.502;10.722;2023-06-26T09:00:39;99860.50;;;27.34;61.48
14253;BME280;7210;51.502;10.722;2023-06-26T09:03:07;99886.47;;;27.43;60.81
14253;BME280;7210;51.502;10.722;2023-06-26T09:05:36;99892.47;;;27.57;60.77
14253;BME280;7210;51.502;10.722;2023-06-26T09:08:04;99918.31;;;27.63;61.05
14253;BME280;7210;51.502;10.722;2023-06-26T09:10:32;99855.06;;;27.75;59.31
14253;BME280;7210;51.502;10.722;2023-06-26T09:12:59;99868.41;;;27.88;58.64
14253;BME280;7210;51.502;10.722;2023-06-26T09:15:27;99831.31;;;28.04;56.94
14253;BME280;7210;51.502;10.722;2023-06-26T09:17:57;99846.66;;;28.21;55.99
14253;BME280;7210;51.502;10.722;2023-06-26T09:20:28;99795.34;;;28.43;53.56
14253;BME280;7210;51.502;10.722;2023-06-26T09:22:57;99873.06;;;28.64;53.80
14253;BME280;7210;51.502;10.722;2023-06-26T09:25:25;99844.59;;;28.74;52.98
14253;BME280;7210;51.502;10.722;2023-06-26T09:27:53;99849.25;;;28.85;52.28
14253;BME280;7210;51.502;10.722;2023-06-26T09:30:20;99842.78;;;28.90;51.60
14253;BME280;7210;51.502;10.722;2023-06-26T09:32:50;99870.75;;;29.11;51.66
14253;BME280;7210;51.502;10.722;2023-06-26T09:35:20;99878.66;;;29.28;51.49
14253;BME280;7210;51.502;10.722;2023-06-26T09:37:50;99825.94;;;29.36;49.84
14253;BME280;7210;51.502;10.722;2023-06-26T09:40:19;99802.50;;;29.47;49.00
14253;BME280;7210;51.502;10.722;2023-06-26T09:42:46;99801.50;;;29.51;48.64
14253;BME280;7210;51.502;10.722;2023-06-26T09:45:18;99816.34;;;29.66;48.56
14253;BME280;7210;51.502;10.722;2023-06-26T09:47:46;99826.13;;;29.82;48.20
14253;BME280;7210;51.502;10.722;2023-06-26T09:50:22;99737.00;;;29.71;46.16
14253;BME280;7210;51.502;10.722;2023-06-26T09:52:51;99710.34;;;29.64;45.39
14253;BME280;7210;51.502;10.722;2023-06-26T09:55:27;99760.59;;;29.79;45.57
14253;BME280;7210;51.502;10.722;2023-06-26T09:57:59;99701.66;;;29.90;44.39
14253;BME280;7210;51.502;10.722;2023-06-26T10:00:27;99707.03;;;29.86;44.30
14253;BME280;7210;51.502;10.722;2023-06-26T10:02:54;99774.16;;;29.91;45.44
14253;BME280;7210;51.502;10.722;2023-06-26T10:05:21;99755.59;;;29.96;45.09
14253;BME280;7210;51.502;10.722;2023-06-26T10:07:49;99828.31;;;30.04;46.32
14253;BME280;7210;51.502;10.722;2023-06-26T10:10:17;99747.38;;;30.24;44.29
14253;BME280;7210;51.502;10.722;2023-06-26T10:12:50;99746.06;;;30.33;44.18
14253;BME280;7210;51.502;10.722;2023-06-26T10:15:19;99667.69;;;30.34;42.58
14253;BME280;7210;51.502;10.722;2023-06-26T10:17:51;99747.38;;;30.39;44.02
14253;BME280;7210;51.502;10.722;2023-06-26T10:20:21;99729.72;;;30.52;43.39
14253;BME280;7210;51.502;10.722;2023-06-26T10:22:49;99760.50;;;30.65;43.58
14253;BME280;7210;51.502;10.722;2023-06-26T10:25:27;99734.69;;;30.62;43.60
14253;BME280;7210;51.502;10.722;2023-06-26T10:27:59;99724.00;;;30.73;43.78
14253;BME280;7210;51.502;10.722;2023-06-26T10:30:34;99802.94;;;30.78;44.21
14253;BME280;7210;51.502;10.722;2023-06-26T10:33:04;99817.66;;;30.89;44.51
14253;BME280;7210;51.502;10.722;2023-06-26T10:35:31;99803.09;;;30.85;44.32
14253;BME280;7210;51.502;10.722;2023-06-26T10:38:03;99743.22;;;30.61;44.11
14253;BME280;7210;51.502;10.722;2023-06-26T10:40:42;99840.94;;;30.83;45.56
14253;BME280;7210;51.502;10.722;2023-06-26T10:43:13;99824.56;;;31.02;44.96
14253;BME280;7210;51.502;10.722;2023-06-26T10:45:45;99768.84;;;31.06;44.04
14253;BME280;7210;51.502;10.722;2023-06-26T10:48:14;99834.19;;;31.27;44.59
14253;BME280;7210;51.502;10.722;2023-06-26T10:50:42;99828.44;;;31.51;43.92
14253;BME280;7210;51.502;10.722;2023-06-26T10:53:16;99777.25;;;31.51;43.47
14253;BME280;7210;51.502;10.722;2023-06-26T10:56:08;99795.69;;;31.35;44.24
14253;BME280;7210;51.502;10.722;2023-06-26T10:58:41;99735.75;;;31.27;43.50
14253;BME280;7210;51.502;10.722;2023-06-26T11:01:21;99771.56;;;31.22;44.11
14253;BME280;7210;51.502;10.722;2023-06-26T11:04:01;99750.25;;;31.12;44.01
14253;BME280;7210;51.502;10.722;2023-06-26T11:06:31;99702.16;;;30.73;44.07
14253;BME280;7210;51.502;10.722;2023-06-26T11:09:01;99682.78;;;30.47;44.06
14253;BME280;7210;51.502;10.722;2023-06-26T11:11:57;99755.75;;;30.31;45.33
14253;BME280;7210;51.502;10.722;2023-06-26T11:14:34;99834.31;;;30.53;46.48
14253;BME280;7210;51.502;10.722;2023-06-26T11:17:03;99896.53;;;30.75;47.11
14253;BME280;7210;51.502;10.722;2023-06-26T11:19:31;99856.25;;;30.72;46.76
14253;BME280;7210;51.502;10.722;2023-06-26T11:21:59;99847.53;;;30.82;46.41
14253;BME280;7210;51.502;10.722;2023-06-26T11:24:29;99823.31;;;30.80;45.99
14253;BME280;7210;51.502;10.722;2023-06-26T11:27:01;99799.94;;;30.67;46.12
14253;BME280;7210;51.502;10.722;2023-06-26T11:29:30;99776.72;;;30.27;46.87
14253;BME280;7210;51.502;10.722;2023-06-26T11:32:06;99796.13;;;30.10;47.54
14253;BME280;7210;51.502;10.722;2023-06-26T11:34:34;99836.88;;;30.03;48.36
14253;BME280;7210;51.502;10.722;2023-06-26T11:37:01;99864.16;;;30.03;49.08
14253;BME280;7210;51.502;10.722;2023-06-26T11:39:29;99804.22;;;29.79;48.52
14253;BME280;7210;51.502;10.722;2023-06-26T11:42:02;99759.13;;;29.54;48.23
14253;BME280;7210;51.502;10.722;2023-06-26T11:44:30;99743.63;;;29.30;48.70
14253;BME280;7210;51.502;10.722;2023-06-26T11:46:58;99754.03;;;29.13;48.87
14253;BME280;7210;51.502;10.722;2023-06-26T11:49:28;99742.50;;;28.80;49.28
14253;BME280;7210;51.502;10.722;2023-06-26T11:51:56;99795.13;;;28.36;51.36
14253;BME280;7210;51.502;10.722;2023-06-26T11:54:27;99839.13;;;28.06;53.17
14253;BME280;7210;51.502;10.722;2023-06-26T11:56:58;99832.66;;;27.57;54.66
14253;BME280;7210;51.502;10.722;2023-06-26T11:59:39;99858.59;;;27.34;56.33
14253;BME280;7210;51.502;10.722;2023-06-26T12:02:09;99860.81;;;27.03;57.55
14253;BME280;7210;51.502;10.722;2023-06-26T12:04:40;99875.97;;;26.75;58.55
14253;BME280;7210;51.502;10.722;2023-06-26T12:07:09;99893.59;;;26.52;59.21
14253;BME280;7210;51.502;10.722;2023-06-26T12:09:42;99876.56;;;26.26;60.48
14253;BME280;7210;51.502;10.722;2023-06-26T12:12:14;99842.66;;;25.86;61.37
14253;BME280;7210;51.502;10.722;2023-06-26T12:14:43;99746.22;;;24.83;62.30
14253;BME280;7210;51.502;10.722;2023-06-26T12:17:12;99770.69;;;23.78;65.10
14253;BME280;7210;51.502;10.722;2023-06-26T12:19:45;99783.41;;;22.45;71.02
14253;BME280;7210;51.502;10.722;2023-06-26T12:22:14;99808.41;;;21.36;77.48
14253;BME280;7210;51.502;10.722;2023-06-26T12:24:43;99784.75;;;20.49;82.68
14253;BME280;7210;51.502;10.722;2023-06-26T12:27:13;99769.66;;;20.29;87.02
14253;BME280;7210;51.502;10.722;2023-06-26T12:29:49;99738.41;;;20.15;91.16
14253;BME280;7210;51.502;10.722;2023-06-26T12:32:16;99712.38;;;20.15;95.07
14253;BME280;7210;51.502;10.722;2023-06-26T12:34:49;99665.91;;;20.15;98.07
14253;BME280;7210;51.502;10.722;2023-06-26T12:37:20;99647.34;;;20.18;100.00
14253;BME280;7210;51.502;10.722;2023-06-26T12:39:52;99619.13;;;20.21;100.00
14253;BME280;7210;51.502;10.722;2023-06-26T12:42:22;99597.03;;;20.24;100.00
14253;BME280;7210;51.502;10.722;2023-06-26T12:44:50;99576.38;;;20.43;100.00
14253;BME280;7210;51.502;10.722;2023-06-26T12:47:23;99534.88;;;20.49;100.00
14253;BME280;7210;51.502;10.722;2023-06-26T12:49:52;99492.94;;;20.53;100.00
14253;BME280;7210;51.502;10.722;2023-06-26T12:52:20;99504.34;;;20.77;100.00
14253;BME280;7210;51.502;10.722;2023-06-26T12:54:53;99493.84;;;20.94;100.00
14253;BME280;7210;51.502;10.722;2023-06-26T12:57:21;99484.31;;;21.15;100.00
14253;BME280;7210;51.502;10.722;2023-06-26T12:59:49;99472.56;;;21.38;100.00
14253;BME280;7210;51.502;10.722;2023-06-26T13:02:17;99471.50;;;21.66;100.00
14253;BME280;7210;51.502;10.722;2023-06-26T13:04:51;99470.09;;;22.04;100.00
14253;BME280;7210;51.502;10.722;2023-06-26T13:07:18;99452.91;;;22.13;100.00
14253;BME280;7210;51.502;10.722;2023-06-26T13:09:46;99446.97;;;22.25;100.00
14253;BME280;7210;51.502;10.722;2023-06-26T13:12:14;99451.34;;;22.56;100.00